Time;durP1;ratioP1;P1;durP2;ratioP2;P2;SDS_P1;SDS_P2;PMS_P1;PMS_P2;Temp;Humidity;BMP_temperature;BMP_pressure;BME280_temperature;BME280_humidity;BME280_pressure;Samples;Min_cycle;Max_cycle;Signal;HPM_P1;HPM_P2
2022/04/20 00:01:59;;;;;;;;;;;;;;;;;;4937201;29;19978;-77
2022/04/20 00:04:24;;;;;;;;;;;;;;;;;;4937490;29;20317;-77
2022/04/20 00:06:49;;;;;;;;;;;;;;;;;;4937295;29;20009;-76
2022/04/20 00:09:15;;;;;;;;;;;;;;;;;;4937115;29;20499;-77
2022/04/20 00:11:40;;;;;;;;;;;;;;;;;;4931427;29;19915;-76
2022/04/20 00:14:05;;;;;;;;;;;;;;;;;;4937203;29;20217;-76
2022/04/20 00:16:30;;;;;;;;;;;;;;;;;;4936296;29;20395;-76
2022/04/20 00:18:58;;;;;;;;;;;;;;;;;;4948586;29;19914;-76
2022/04/20 00:21:23;;;;;;;;;;;;;;;;;;4936900;29;19914;-76
2022/04/20 00:23:49;;;;;;;;;;;;;;;;;;4937845;29;19973;-76
2022/04/20 00:26:14;;;;;;;;;;;;;;;;;;4937177;29;20481;-76
2022/04/20 00:28:40;;;;;;;;;;;;;;;;;;4936943;29;20337;-76
2022/04/20 00:31:08;;;;;;;;;;;;;;;;;;4931968;29;19922;-76
2022/04/20 00:33:33;;;;;;;;;;;;;;;;;;4932060;29;19914;-77
2022/04/20 00:35:58;;;;;;;;;;;;;;;;;;4935884;29;19976;-76
2022/04/20 00:38:24;;;;;;;;;;;;;;;;;;4937764;29;19969;-76
2022/04/20 00:40:49;;;;;;;;;;;;;;;;;;4935058;29;20029;-77
2022/04/20 00:43:15;;;;;;;;;;;;;;;;;;4943947;29;20349;-76
2022/04/20 00:45:40;;;;;;;;;;;;;;;;;;4920060;29;20290;-76
2022/04/20 00:48:05;;;;;;;;;;;;;;;;;;4936725;29;20395;-76
2022/04/20 00:50:31;;;;;;;;;;;;;;;;;;4936323;29;19915;-76
2022/04/20 00:52:56;;;;;;;;;;;;;;;;;;4931453;29;19915;-77
2022/04/20 00:55:21;;;;;;;;;;;;;;;;;;4934476;29;19911;-76
2022/04/20 00:57:46;;;;;;;;;;;;;;;;;;4918406;29;19922;-77
2022/04/20 01:00:12;;;;;;;;;;;;;;;;;;4933314;29;19918;-77
2022/04/20 01:02:37;;;;;;;;;;;;;;;;;;4935925;29;19977;-77
2022/04/20 01:05:07;;;;;;;;;;;;;;;;;;4935961;29;19915;-77
2022/04/20 01:07:38;;;;;;;;;;;;;;;;;;4937223;29;19915;-77
2022/04/20 01:10:04;;;;;;;;;;;;;;;;;;4937331;29;20018;-76
2022/04/20 01:12:29;;;;;;;;;;;;;;;;;;4938857;29;20345;-77
2022/04/20 01:14:57;;;;;;;;;;;;;;;;;;4940258;29;19929;-76
2022/04/20 01:17:24;;;;;;;;;;;;;;;;;;4939984;29;19966;-77
2022/04/20 01:19:50;;;;;;;;;;;;;;;;;;4940139;29;20340;-76
2022/04/20 01:22:16;;;;;;;;;;;;;;;;;;4940629;29;19934;-78
2022/04/20 01:24:41;;;;;;;;;;;;;;;;;;4938969;29;20267;-76
2022/04/20 01:27:09;;;;;;;;;;;;;;;;;;4940790;29;19914;-76
2022/04/20 01:29:36;;;;;;;;;;;;;;;;;;4939820;29;19926;-77
2022/04/20 01:32:02;;;;;;;;;;;;;;;;;;4938327;29;19914;-76
2022/04/20 01:34:27;;;;;;;;;;;;;;;;;;4938841;29;19921;-77
2022/04/20 01:36:52;;;;;;;;;;;;;;;;;;4939023;29;19914;-77
2022/04/20 01:39:17;;;;;;;;;;;;;;;;;;4940394;29;19915;-77
2022/04/20 01:41:43;;;;;;;;;;;;;;;;;;4939381;29;20004;-77
2022/04/20 01:44:11;;;;;;;;;;;;;;;;;;4939302;29;20293;-77
2022/04/20 01:46:36;;;;;;;;;;;;;;;;;;4939737;29;19968;-78
2022/04/20 01:49:03;;;;;;;;;;;;;;;;;;4939704;29;19918;-76
2022/04/20 01:51:47;;;;;;;;;;;;;;;;;;4939028;29;20369;-77
2022/04/20 01:54:14;;;;;;;;;;;;;;;;;;4928698;29;19946;-77
2022/04/20 01:56:40;;;;;;;;;;;;;;;;;;4939722;29;19982;-77
2022/04/20 01:59:06;;;;;;;;;;;;;;;;;;4939259;29;19961;-77
2022/04/20 02:04:18;;;;;;;;;;;;;;;;;;4928509;29;20407;-77
2022/04/20 02:06:43;;;;;;;;;;;;;;;;;;4937921;29;20328;-77
2022/04/20 02:09:08;;;;;;;;;;;;;;;;;;4937963;29;19914;-76
2022/04/20 02:11:35;;;;;;;;;;;;;;;;;;4937140;29;19926;-77
2022/04/20 02:14:02;;;;;;;;;;;;;;;;;;4934929;29;20285;-77
2022/04/20 02:16:28;;;;;;;;;;;;;;;;;;4931592;29;20001;-77
2022/04/20 02:18:56;;;;;;;;;;;;;;;;;;4939186;29;20010;-77
2022/04/20 02:21:21;;;;;;;;;;;;;;;;;;4938895;29;20005;-77
2022/04/20 02:23:46;;;;;;;;;;;;;;;;;;4936341;29;20062;-77
2022/04/20 02:26:12;;;;;;;;;;;;;;;;;;4938952;29;19918;-77
2022/04/20 02:28:37;;;;;;;;;;;;;;;;;;4938920;29;19946;-77
2022/04/20 02:31:02;;;;;;;;;;;;;;;;;;4934312;29;20006;-78
2022/04/20 02:33:30;;;;;;;;;;;;;;;;;;4938365;29;20379;-78
2022/04/20 02:35:56;;;;;;;;;;;;;;;;;;4938952;29;19918;-76
2022/04/20 02:38:21;;;;;;;;;;;;;;;;;;4938273;29;19919;-78
2022/04/20 02:40:47;;;;;;;;;;;;;;;;;;4939810;29;20275;-77
2022/04/20 02:43:12;;;;;;;;;;;;;;;;;;4922110;29;19922;-77
2022/04/20 02:45:37;;;;;;;;;;;;;;;;;;4938888;29;19938;-78
2022/04/20 02:48:03;;;;;;;;;;;;;;;;;;4938503;29;19914;-78
2022/04/20 02:50:28;;;;;;;;;;;;;;;;;;4937882;29;19961;-77
2022/04/20 02:52:54;;;;;;;;;;;;;;;;;;4938279;29;19961;-78
2022/04/20 02:55:22;;;;;;;;;;;;;;;;;;4938752;29;19918;-78
2022/04/20 02:57:47;;;;;;;;;;;;;;;;;;4919677;29;20380;-78
2022/04/20 03:00:13;;;;;;;;;;;;;;;;;;4936431;29;19919;-76
2022/04/20 03:02:38;;;;;;;;;;;;;;;;;;4922654;29;19919;-77
2022/04/20 03:05:04;;;;;;;;;;;;;;;;;;4938757;29;19911;-77
2022/04/20 03:07:31;;;;;;;;;;;;;;;;;;4937844;29;19925;-77
2022/04/20 03:09:56;;;;;;;;;;;;;;;;;;4938294;29;19926;-77
2022/04/20 03:12:21;;;;;;;;;;;;;;;;;;4922066;29;19915;-77
2022/04/20 03:14:51;;;;;;;;;;;;;;;;;;4938657;29;19914;-77
2022/04/20 03:17:16;;;;;;;;;;;;;;;;;;4938110;29;20021;-78
2022/04/20 03:19:42;;;;;;;;;;;;;;;;;;4919123;29;20368;-76
2022/04/20 03:22:07;;;;;;;;;;;;;;;;;;4937793;29;19915;-77
2022/04/20 03:24:32;;;;;;;;;;;;;;;;;;4937682;29;19914;-77
2022/04/20 03:26:57;;;;;;;;;;;;;;;;;;4937610;29;19914;-76
2022/04/20 03:29:23;;;;;;;;;;;;;;;;;;4931779;29;20281;-77
2022/04/20 03:31:49;;;;;;;;;;;;;;;;;;4938786;29;20407;-77
2022/04/20 03:34:14;;;;;;;;;;;;;;;;;;4921019;29;19914;-77
2022/04/20 03:36:39;;;;;;;;;;;;;;;;;;4938490;29;20259;-78
2022/04/20 03:39:05;;;;;;;;;;;;;;;;;;4930864;29;19970;-77
2022/04/20 03:41:30;;;;;;;;;;;;;;;;;;4933361;29;19915;-77
2022/04/20 03:44:00;;;;;;;;;;;;;;;;;;4921086;29;19946;-77
2022/04/20 03:46:25;;;;;;;;;;;;;;;;;;4938166;29;20531;-78
2022/04/20 03:48:51;;;;;;;;;;;;;;;;;;4938506;29;20009;-78
2022/04/20 03:51:16;;;;;;;;;;;;;;;;;;4936988;29;19914;-78
2022/04/20 03:53:45;;;;;;;;;;;;;;;;;;4937664;29;19985;-78
2022/04/20 03:56:10;;;;;;;;;;;;;;;;;;4936636;29;20006;-78
2022/04/20 03:58:37;;;;;;;;;;;;;;;;;;4933788;29;20013;-77
2022/04/20 04:01:03;;;;;;;;;;;;;;;;;;4933430;29;19915;-78
2022/04/20 04:03:31;;;;;;;;;;;;;;;;;;4934144;29;19969;-77
2022/04/20 04:05:58;;;;;;;;;;;;;;;;;;4934302;29;19945;-78
2022/04/20 04:08:23;;;;;;;;;;;;;;;;;;4936799;29;19941;-78
2022/04/20 04:10:50;;;;;;;;;;;;;;;;;;4936916;29;20324;-77
2022/04/20 04:13:18;;;;;;;;;;;;;;;;;;4935694;29;20013;-78
2022/04/20 04:15:46;;;;;;;;;;;;;;;;;;4925629;29;20055;-77
2022/04/20 04:18:12;;;;;;;;;;;;;;;;;;4937391;29;19965;-78
2022/04/20 04:20:37;;;;;;;;;;;;;;;;;;4935564;29;20002;-77
2022/04/20 04:23:02;;;;;;;;;;;;;;;;;;4936658;29;20352;-77
2022/04/20 04:25:28;;;;;;;;;;;;;;;;;;4920751;29;20248;-78
2022/04/20 04:27:53;;;;;;;;;;;;;;;;;;4936275;29;20241;-78
2022/04/20 04:30:21;;;;;;;;;;;;;;;;;;4924636;29;20342;-77
2022/04/20 04:32:47;;;;;;;;;;;;;;;;;;4933675;29;20049;-77
2022/04/20 04:35:13;;;;;;;;;;;;;;;;;;4923800;29;19918;-78
2022/04/20 04:37:39;;;;;;;;;;;;;;;;;;4933690;29;20375;-77
2022/04/20 04:40:04;;;;;;;;;;;;;;;;;;4926770;29;19925;-77
2022/04/20 04:42:30;;;;;;;;;;;;;;;;;;4937433;29;20002;-78
2022/04/20 04:48:36;;;;;;;;;;;;;;;;;;4937179;29;20006;-78
2022/04/20 04:50:24;;;;;;;;;;;;;;;;;;4934875;29;19926;-78
2022/04/20 04:52:49;;;;;;;;;;;;;;;;;;4936349;29;19915;-78
2022/04/20 04:55:17;;;;;;;;;;;;;;;;;;4936106;29;19919;-77
2022/04/20 04:57:42;;;;;;;;;;;;;;;;;;4932107;29;20320;-78
2022/04/20 05:00:08;;;;;;;;;;;;;;;;;;4937484;29;19914;-78
2022/04/20 05:02:35;;;;;;;;;;;;;;;;;;4936658;29;19927;-78
2022/04/20 05:05:00;;;;;;;;;;;;;;;;;;4936790;29;19919;-80
2022/04/20 05:07:26;;;;;;;;;;;;;;;;;;4936757;29;19970;-78
2022/04/20 05:09:51;;;;;;;;;;;;;;;;;;4936743;29;19915;-79
2022/04/20 05:12:17;;;;;;;;;;;;;;;;;;4937144;29;19969;-78
2022/04/20 05:14:42;;;;;;;;;;;;;;;;;;4937502;29;19982;-78
2022/04/20 05:17:07;;;;;;;;;;;;;;;;;;4937132;29;20391;-78
2022/04/20 05:19:34;;;;;;;;;;;;;;;;;;4933583;29;19925;-77
2022/04/20 05:22:02;;;;;;;;;;;;;;;;;;4933928;29;19941;-78
2022/04/20 05:24:27;;;;;;;;;;;;;;;;;;4936308;29;19930;-78
2022/04/20 05:26:52;;;;;;;;;;;;;;;;;;4936630;29;19915;-78
2022/04/20 05:29:19;;;;;;;;;;;;;;;;;;4937275;29;19915;-78
2022/04/20 05:31:44;;;;;;;;;;;;;;;;;;4935505;29;19929;-78
2022/04/20 05:34:09;;;;;;;;;;;;;;;;;;4935793;29;19993;-77
2022/04/20 05:42:05;;;;;;;;;;;;;;;;;;4935960;29;20355;-78
2022/04/20 05:44:30;;;;;;;;;;;;;;;;;;4930167;29;19915;-78
2022/04/20 05:46:55;;;;;;;;;;;;;;;;;;4926765;29;20303;-78
2022/04/20 05:49:21;;;;;;;;;;;;;;;;;;4935564;29;20285;-78
2022/04/20 05:51:46;;;;;;;;;;;;;;;;;;4935780;29;20307;-78
2022/04/20 05:54:12;;;;;;;;;;;;;;;;;;4936411;29;20002;-77
2022/04/20 05:56:38;;;;;;;;;;;;;;;;;;4934351;29;19923;-78
2022/04/20 05:59:03;;;;;;;;;;;;;;;;;;4931314;29;19922;-77
2022/04/20 06:01:31;;;;;;;;;;;;;;;;;;4939300;29;19914;-77
2022/04/20 06:03:56;;;;;;;;;;;;;;;;;;4938277;29;19923;-77
2022/04/20 06:06:21;;;;;;;;;;;;;;;;;;4939723;29;20317;-77
2022/04/20 06:08:47;;;;;;;;;;;;;;;;;;4938733;29;20301;-77
2022/04/20 06:11:12;;;;;;;;;;;;;;;;;;4933685;29;19918;-77
2022/04/20 06:13:40;;;;;;;;;;;;;;;;;;4939633;28;20325;-77
2022/04/20 06:16:06;;;;;;;;;;;;;;;;;;4937971;29;19918;-78
2022/04/20 06:18:31;;;;;;;;;;;;;;;;;;4939442;29;19914;-78
2022/04/20 06:20:56;;;;;;;;;;;;;;;;;;4940278;29;20355;-77
2022/04/20 06:23:22;;;;;;;;;;;;;;;;;;4940696;29;20317;-78
2022/04/20 06:25:48;;;;;;;;;;;;;;;;;;4937965;29;19925;-77
2022/04/20 06:28:13;;;;;;;;;;;;;;;;;;4940376;29;19915;-77
2022/04/20 06:33:59;;;;;;;;;;;;;;;;;;4939736;29;19921;-78
2022/04/20 06:45:36;;;;;;;;;;;;;;;;;;4938245;28;19918;-78
2022/04/20 06:48:04;;;;;;;;;;;;;;;;;;4938279;29;19925;-79
2022/04/20 06:50:29;;;;;;;;;;;;;;;;;;4926871;29;19969;-79
2022/04/20 06:58:52;;;;;;;;;;;;;;;;;;4920195;29;20336;-78
2022/04/20 07:01:17;;;;;;;;;;;;;;;;;;4938561;29;19966;-78
2022/04/20 07:03:42;;;;;;;;;;;;;;;;;;4935458;29;19926;-78
2022/04/20 07:06:27;;;;;;;;;;;;;;;;;;4936644;29;19914;-78
2022/04/20 07:08:53;;;;;;;;;;;;;;;;;;4935097;29;19914;-78
2022/04/20 07:11:18;;;;;;;;;;;;;;;;;;4921163;29;20008;-79
2022/04/20 07:13:43;;;;;;;;;;;;;;;;;;4919545;29;19974;-79
2022/04/20 07:16:11;;;;;;;;;;;;;;;;;;4919636;29;19911;-81
2022/04/20 07:18:36;;;;;;;;;;;;;;;;;;4922524;29;19910;-80
2022/04/20 07:21:03;;;;;;;;;;;;;;;;;;4931658;29;19914;-79
2022/04/20 07:23:28;;;;;;;;;;;;;;;;;;4913613;29;19929;-79
2022/04/20 07:25:56;;;;;;;;;;;;;;;;;;4924541;29;20236;-79
2022/04/20 07:28:23;;;;;;;;;;;;;;;;;;4927880;29;20348;-79
2022/04/20 07:30:49;;;;;;;;;;;;;;;;;;4934386;29;19915;-80
2022/04/20 07:33:15;;;;;;;;;;;;;;;;;;4933753;29;19911;-79
2022/04/20 07:35:40;;;;;;;;;;;;;;;;;;4929746;29;19943;-79
2022/04/20 07:38:05;;;;;;;;;;;;;;;;;;4938280;29;19926;-79
2022/04/20 07:40:31;;;;;;;;;;;;;;;;;;4938492;29;19914;-79
2022/04/20 07:42:56;;;;;;;;;;;;;;;;;;4938143;29;19922;-79
2022/04/20 07:45:25;;;;;;;;;;;;;;;;;;4936356;29;19923;-79
2022/04/20 07:48:06;;;;;;;;;;;;;;;;;;4938149;29;19922;-79
2022/04/20 07:50:31;;;;;;;;;;;;;;;;;;4938528;29;19914;-79
2022/04/20 07:53:08;;;;;;;;;;;;;;;;;;4932377;29;19925;-79
2022/04/20 07:55:37;;;;;;;;;;;;;;;;;;4928235;29;19953;-78
2022/04/20 07:58:12;;;;;;;;;;;;;;;;;;4932235;29;19925;-79
2022/04/20 08:00:40;;;;;;;;;;;;;;;;;;4927068;29;20365;-80
2022/04/20 08:03:08;;;;;;;;;;;;;;;;;;4930146;29;20396;-79
2022/04/20 08:05:36;;;;;;;;;;;;;;;;;;4932511;29;20328;-78
2022/04/20 08:08:01;;;;;;;;;;;;;;;;;;4932568;29;19923;-79
2022/04/20 08:10:26;;;;;;;;;;;;;;;;;;4930708;29;19940;-78
2022/04/20 08:12:51;;;;;;;;;;;;;;;;;;4932715;29;19997;-77
2022/04/20 08:15:17;;;;;;;;;;;;;;;;;;4932996;29;19914;-77
2022/04/20 08:17:42;;;;;;;;;;;;;;;;;;4928876;29;19915;-77
2022/04/20 08:20:10;;;;;;;;;;;;;;;;;;4925025;29;19954;-77
2022/04/20 08:22:40;;;;;;;;;;;;;;;;;;4944948;29;20353;-77
2022/04/20 08:25:08;;;;;;;;;;;;;;;;;;4948316;29;19974;-77
2022/04/20 08:27:33;;;;;;;;;;;;;;;;;;4937924;29;19914;-77
2022/04/20 08:30:00;;;;;;;;;;;;;;;;;;4926516;29;20396;-78
2022/04/20 08:32:26;;;;;;;;;;;;;;;;;;4926762;29;19938;-77
2022/04/20 08:34:53;;;;;;;;;;;;;;;;;;4931007;29;19937;-77
2022/04/20 08:37:19;;;;;;;;;;;;;;;;;;4926885;29;19915;-77
2022/04/20 08:39:46;;;;;;;;;;;;;;;;;;4919733;29;19921;-76
2022/04/20 08:42:14;;;;;;;;;;;;;;;;;;4921310;29;19910;-77
2022/04/20 08:44:43;;;;;;;;;;;;;;;;;;4929654;29;19923;-77
2022/04/20 08:47:12;;;;;;;;;;;;;;;;;;4925729;29;20305;-78
2022/04/20 08:49:37;;;;;;;;;;;;;;;;;;4927671;29;19953;-77
2022/04/20 08:54:46;;;;;;;;;;;;;;;;;;4926868;29;19951;-77
2022/04/20 08:57:19;;;;;;;;;;;;;;;;;;4936400;29;19919;-77
2022/04/20 08:59:54;;;;;;;;;;;;;;;;;;4932979;29;19915;-77
2022/04/20 09:02:19;;;;;;;;;;;;;;;;;;4922301;29;20248;-78
2022/04/20 09:04:45;;;;;;;;;;;;;;;;;;4901500;29;19970;-77
2022/04/20 09:07:18;;;;;;;;;;;;;;;;;;4929010;29;19915;-78
2022/04/20 09:09:43;;;;;;;;;;;;;;;;;;4917988;29;19923;-77
2022/04/20 09:12:11;;;;;;;;;;;;;;;;;;4928200;29;19997;-77
2022/04/20 09:14:40;;;;;;;;;;;;;;;;;;4936562;29;19915;-78
2022/04/20 09:17:08;;;;;;;;;;;;;;;;;;4936716;29;19926;-77
2022/04/20 09:19:33;;;;;;;;;;;;;;;;;;4935327;29;20375;-77
2022/04/20 09:22:18;;;;;;;;;;;;;;;;;;4934709;29;19915;-76
2022/04/20 09:28:04;;;;;;;;;;;;;;;;;;4919307;29;20001;-78
2022/04/20 09:30:39;;;;;;;;;;;;;;;;;;4924678;29;20388;-78
2022/04/20 09:33:08;;;;;;;;;;;;;;;;;;4936082;29;21424;-77
2022/04/20 09:35:51;;;;;;;;;;;;;;;;;;4938343;29;19915;-78
2022/04/20 09:38:19;;;;;;;;;;;;;;;;;;4936734;29;19918;-78
2022/04/20 09:40:49;;;;;;;;;;;;;;;;;;4937257;29;19923;-78
2022/04/20 09:43:20;;;;;;;;;;;;;;;;;;4919896;29;19989;-78
2022/04/20 09:48:50;;;;;;;;;;;;;;;;;;4939202;29;19918;-77
2022/04/20 09:48:52;;;;;;;;;;;;;;;;;;4936564;29;19929;-77
2022/04/20 09:51:22;;;;;;;;;;;;;;;;;;4932276;29;19947;-78
2022/04/20 09:53:49;;;;;;;;;;;;;;;;;;4936225;29;19966;-78
2022/04/20 09:56:18;;;;;;;;;;;;;;;;;;4928130;29;19914;-78
2022/04/20 09:58:46;;;;;;;;;;;;;;;;;;4939463;29;20415;-77
2022/04/20 10:01:25;;;;;;;;;;;;;;;;;;4938628;29;19982;-78
2022/04/20 10:03:54;;;;;;;;;;;;;;;;;;4929858;29;19920;-79
2022/04/20 10:06:21;;;;;;;;;;;;;;;;;;4925454;29;19915;-79
2022/04/20 10:08:47;;;;;;;;;;;;;;;;;;4929883;29;20341;-80
2022/04/20 10:11:13;;;;;;;;;;;;;;;;;;4933616;29;19918;-80
2022/04/20 10:13:38;;;;;;;;;;;;;;;;;;4937459;29;20026;-79
2022/04/20 10:16:07;;;;;;;;;;;;;;;;;;4922486;29;20293;-80
2022/04/20 10:18:37;;;;;;;;;;;;;;;;;;4923431;29;19911;-79
2022/04/20 10:21:03;;;;;;;;;;;;;;;;;;4923177;29;19918;-79
2022/04/20 10:23:31;;;;;;;;;;;;;;;;;;4925396;29;19930;-80
2022/04/20 10:25:57;;;;;;;;;;;;;;;;;;4939238;29;19915;-79
2022/04/20 10:28:41;;;;;;;;;;;;;;;;;;4939152;29;20005;-78
2022/04/20 10:31:09;;;;;;;;;;;;;;;;;;4940074;29;19914;-79
2022/04/20 10:33:34;;;;;;;;;;;;;;;;;;4941269;29;20009;-80
2022/04/20 10:36:01;;;;;;;;;;;;;;;;;;4923061;29;20001;-80
2022/04/20 10:38:30;;;;;;;;;;;;;;;;;;4931085;29;19914;-79
2022/04/20 10:40:56;;;;;;;;;;;;;;;;;;4938495;29;19918;-79
2022/04/20 10:43:23;;;;;;;;;;;;;;;;;;4938361;29;20240;-79
2022/04/20 10:46:04;;;;;;;;;;;;;;;;;;4938441;29;20321;-80
2022/04/20 10:48:47;;;;;;;;;;;;;;;;;;4938015;29;19925;-80
2022/04/20 10:51:16;;;;;;;;;;;;;;;;;;4921643;29;19927;-82
2022/04/20 10:53:47;;;;;;;;;;;;;;;;;;4920088;29;19915;-81
2022/04/20 10:56:13;;;;;;;;;;;;;;;;;;4939457;29;19962;-82
2022/04/20 10:58:49;;;;;;;;;;;;;;;;;;4938787;29;20308;-81
2022/04/20 11:01:17;;;;;;;;;;;;;;;;;;4938666;29;19911;-81
2022/04/20 11:03:58;;;;;;;;;;;;;;;;;;4921712;29;19919;-81
2022/04/20 11:06:29;;;;;;;;;;;;;;;;;;4939232;29;20003;-80
2022/04/20 11:09:00;;;;;;;;;;;;;;;;;;4939034;29;20012;-80
2022/04/20 11:20:26;;;;;;;;;;;;;;;;;;4879656;29;19960;-82
2022/04/20 11:23:04;;;;;;;;;;;;;;;;;;4879479;29;19931;-82
2022/04/20 11:25:30;;;;;;;;;;;;;;;;;;4880377;29;19951;-79
2022/04/20 11:28:00;;;;;;;;;;;;;;;;;;4888210;29;20360;-83
2022/04/20 11:30:28;;;;;;;;;;;;;;;;;;4919832;29;19975;-84
2022/04/20 11:32:53;;;;;;;;;;;;;;;;;;4920456;29;19914;-82
2022/04/20 11:35:18;;;;;;;;;;;;;;;;;;4934734;29;19911;-80
2022/04/20 11:37:58;;;;;;;;;;;;;;;;;;4935259;29;19925;-81
2022/04/20 11:40:24;;;;;;;;;;;;;;;;;;4931405;29;20276;-80
2022/04/20 11:43:05;;;;;;;;;;;;;;;;;;4930279;29;19914;-81
2022/04/20 11:45:32;;;;;;;;;;;;;;;;;;4934704;29;19911;-79
2022/04/20 11:48:01;;;;;;;;;;;;;;;;;;4937693;29;20029;-79
2022/04/20 11:50:30;;;;;;;;;;;;;;;;;;4930607;29;19914;-79
2022/04/20 11:52:58;;;;;;;;;;;;;;;;;;4931997;29;19915;-79
2022/04/20 11:55:24;;;;;;;;;;;;;;;;;;4933230;29;20245;-78
2022/04/20 11:58:13;;;;;;;;;;;;;;;;;;4932938;29;19923;-77
2022/04/20 12:00:49;;;;;;;;;;;;;;;;;;4933651;29;19965;-77
2022/04/20 12:03:15;;;;;;;;;;;;;;;;;;4920830;29;19919;-76
2022/04/20 12:05:41;;;;;;;;;;;;;;;;;;4927980;29;19915;-75
2022/04/20 12:08:09;;;;;;;;;;;;;;;;;;4938407;29;19997;-76
2022/04/20 12:10:37;;;;;;;;;;;;;;;;;;4933639;29;19923;-76
2022/04/20 12:13:05;;;;;;;;;;;;;;;;;;4932382;29;19997;-75
2022/04/20 12:15:32;;;;;;;;;;;;;;;;;;4928105;29;19925;-76
2022/04/20 12:17:58;;;;;;;;;;;;;;;;;;4932138;29;19915;-76
2022/04/20 12:20:25;;;;;;;;;;;;;;;;;;4937766;29;19934;-76
2022/04/20 12:23:03;;;;;;;;;;;;;;;;;;4937900;29;19982;-76
2022/04/20 12:25:31;;;;;;;;;;;;;;;;;;4924547;29;20368;-76
2022/04/20 12:27:56;;;;;;;;;;;;;;;;;;4936540;29;19969;-75
2022/04/20 12:30:34;;;;;;;;;;;;;;;;;;4937170;29;19950;-76
2022/04/20 12:33:04;;;;;;;;;;;;;;;;;;4937482;29;19921;-76
2022/04/20 12:35:29;;;;;;;;;;;;;;;;;;4937989;29;19910;-77
2022/04/20 12:37:55;;;;;;;;;;;;;;;;;;4937690;29;19915;-77
2022/04/20 12:40:22;;;;;;;;;;;;;;;;;;4937626;29;19910;-75
2022/04/20 12:43:00;;;;;;;;;;;;;;;;;;4936515;29;20359;-76
2022/04/20 12:45:25;;;;;;;;;;;;;;;;;;4936560;29;19974;-75
2022/04/20 12:47:50;;;;;;;;;;;;;;;;;;4936248;29;20293;-75
2022/04/20 12:50:16;;;;;;;;;;;;;;;;;;4952457;29;20013;-76
2022/04/20 12:52:47;;;;;;;;;;;;;;;;;;4936464;29;19945;-76
2022/04/20 12:55:17;;;;;;;;;;;;;;;;;;4932947;29;19923;-76
2022/04/20 13:03:39;;;;;;;;;;;;;;;;;;4901904;29;20018;-76
2022/04/20 13:06:12;;;;;;;;;;;;;;;;;;4936214;29;19965;-76
2022/04/20 13:08:41;;;;;;;;;;;;;;;;;;4939297;29;19917;-76
2022/04/20 13:11:06;;;;;;;;;;;;;;;;;;4941179;29;19921;-76
2022/04/20 13:13:34;;;;;;;;;;;;;;;;;;4924237;29;19930;-76
2022/04/20 13:15:59;;;;;;;;;;;;;;;;;;4924681;29;19910;-78
2022/04/20 13:18:25;;;;;;;;;;;;;;;;;;4941089;29;19910;-75
2022/04/20 13:20:51;;;;;;;;;;;;;;;;;;4940920;29;19989;-76
2022/04/20 13:23:16;;;;;;;;;;;;;;;;;;4940971;29;19926;-77
2022/04/20 13:28:26;;;;;;;;;;;;;;;;;;4927785;29;20441;-75
2022/04/20 13:30:51;;;;;;;;;;;;;;;;;;4940724;29;19942;-78
2022/04/20 13:33:16;;;;;;;;;;;;;;;;;;4940869;29;20017;-78
2022/04/20 13:35:42;;;;;;;;;;;;;;;;;;4940503;29;19926;-77
2022/04/20 13:38:08;;;;;;;;;;;;;;;;;;4923986;29;19911;-77
2022/04/20 13:40:36;;;;;;;;;;;;;;;;;;4940479;29;19922;-76
2022/04/20 13:43:01;;;;;;;;;;;;;;;;;;4939470;29;19919;-77
2022/04/20 13:45:27;;;;;;;;;;;;;;;;;;4923786;29;20352;-77
2022/04/20 13:47:52;;;;;;;;;;;;;;;;;;4940445;29;19914;-77
2022/04/20 13:50:20;;;;;;;;;;;;;;;;;;4940579;29;19910;-78
2022/04/20 13:52:50;;;;;;;;;;;;;;;;;;4940743;29;20372;-77
2022/04/20 13:55:15;;;;;;;;;;;;;;;;;;4936538;29;19911;-76
2022/04/20 13:57:43;;;;;;;;;;;;;;;;;;4927767;29;19920;-77
2022/04/20 14:00:11;;;;;;;;;;;;;;;;;;4940723;29;19922;-77
2022/04/20 14:02:36;;;;;;;;;;;;;;;;;;4940283;29;19972;-77
2022/04/20 14:05:04;;;;;;;;;;;;;;;;;;4939158;29;19942;-77
2022/04/20 14:07:32;;;;;;;;;;;;;;;;;;4940308;29;19963;-77
2022/04/20 14:09:57;;;;;;;;;;;;;;;;;;4940191;29;20009;-77
2022/04/20 14:12:26;;;;;;;;;;;;;;;;;;4940196;29;19942;-77
2022/04/20 14:14:54;;;;;;;;;;;;;;;;;;4923356;29;19910;-76
2022/04/20 14:17:19;;;;;;;;;;;;;;;;;;4939138;29;19914;-76
2022/04/20 14:19:47;;;;;;;;;;;;;;;;;;4939827;29;19997;-77
2022/04/20 14:22:13;;;;;;;;;;;;;;;;;;4939161;29;20264;-76
2022/04/20 14:24:41;;;;;;;;;;;;;;;;;;4939632;29;20351;-76
2022/04/20 14:32:34;;;;;;;;;;;;;;;;;;4938684;29;20398;-77
2022/04/20 14:35:00;;;;;;;;;;;;;;;;;;4939474;29;19915;-77
2022/04/20 14:37:30;;;;;;;;;;;;;;;;;;4936272;29;19930;-77
2022/04/20 14:39:57;;;;;;;;;;;;;;;;;;4937863;29;19915;-77
2022/04/20 14:42:24;;;;;;;;;;;;;;;;;;4938489;29;20453;-77
2022/04/20 14:44:53;;;;;;;;;;;;;;;;;;4938844;29;19934;-77
2022/04/20 14:47:18;;;;;;;;;;;;;;;;;;4922840;29;19965;-77
2022/04/20 14:49:43;;;;;;;;;;;;;;;;;;4939378;29;19919;-77
2022/04/20 14:52:10;;;;;;;;;;;;;;;;;;4939530;29;20263;-77
2022/04/20 14:54:35;;;;;;;;;;;;;;;;;;4929108;29;19915;-76
2022/04/20 14:57:01;;;;;;;;;;;;;;;;;;4919502;29;19911;-76
2022/04/20 14:59:26;;;;;;;;;;;;;;;;;;4920421;29;19911;-77
2022/04/20 15:01:51;;;;;;;;;;;;;;;;;;4920274;29;19911;-77
2022/04/20 15:04:16;;;;;;;;;;;;;;;;;;4919380;29;20017;-76
2022/04/20 15:06:41;;;;;;;;;;;;;;;;;;4919705;29;20006;-77
2022/04/20 15:09:09;;;;;;;;;;;;;;;;;;4934581;29;19942;-77
2022/04/20 15:11:36;;;;;;;;;;;;;;;;;;4939432;29;20240;-77
2022/04/20 15:14:03;;;;;;;;;;;;;;;;;;4938355;29;19915;-77
2022/04/20 15:16:28;;;;;;;;;;;;;;;;;;4939454;29;20232;-77
2022/04/20 15:18:53;;;;;;;;;;;;;;;;;;4922555;29;19922;-75
2022/04/20 15:21:19;;;;;;;;;;;;;;;;;;4938554;29;19969;-76
2022/04/20 15:23:44;;;;;;;;;;;;;;;;;;4938690;29;20316;-76
2022/04/20 15:26:12;;;;;;;;;;;;;;;;;;4939233;29;19925;-76
2022/04/20 15:28:37;;;;;;;;;;;;;;;;;;4939280;29;19953;-78
2022/04/20 15:31:05;;;;;;;;;;;;;;;;;;4938335;29;19949;-76
2022/04/20 15:33:32;;;;;;;;;;;;;;;;;;4938320;29;19958;-77
2022/04/20 15:35:58;;;;;;;;;;;;;;;;;;4938524;29;19915;-78
2022/04/20 15:38:23;;;;;;;;;;;;;;;;;;4938888;29;19910;-77
2022/04/20 15:40:48;;;;;;;;;;;;;;;;;;4938882;29;19910;-77
2022/04/20 15:43:17;;;;;;;;;;;;;;;;;;4953836;29;19915;-77
2022/04/20 15:45:42;;;;;;;;;;;;;;;;;;4938752;29;19937;-77
2022/04/20 15:48:08;;;;;;;;;;;;;;;;;;4938718;29;20309;-77
2022/04/20 15:50:38;;;;;;;;;;;;;;;;;;4938430;29;19915;-77
2022/04/20 15:53:06;;;;;;;;;;;;;;;;;;4938598;29;19946;-76
2022/04/20 16:00:59;;;;;;;;;;;;;;;;;;4937634;29;19925;-77
2022/04/20 16:03:24;;;;;;;;;;;;;;;;;;4938279;29;19915;-77
2022/04/20 16:05:50;;;;;;;;;;;;;;;;;;4938215;29;19970;-77
2022/04/20 16:08:20;;;;;;;;;;;;;;;;;;4937580;29;20009;-77
2022/04/20 16:10:46;;;;;;;;;;;;;;;;;;4937764;29;20001;-77
2022/04/20 16:13:16;;;;;;;;;;;;;;;;;;4921940;29;20348;-77
2022/04/20 16:15:41;;;;;;;;;;;;;;;;;;4938175;29;19915;-77
2022/04/20 16:18:09;;;;;;;;;;;;;;;;;;4938742;29;19978;-77
2022/04/20 16:20:34;;;;;;;;;;;;;;;;;;4936699;29;20255;-77
2022/04/20 16:23:02;;;;;;;;;;;;;;;;;;4935032;29;20017;-76
2022/04/20 16:25:27;;;;;;;;;;;;;;;;;;4925967;29;19915;-76
2022/04/20 16:27:53;;;;;;;;;;;;;;;;;;4911017;29;19921;-77
2022/04/20 16:30:18;;;;;;;;;;;;;;;;;;4918591;29;19910;-77
2022/04/20 16:32:43;;;;;;;;;;;;;;;;;;4919169;29;20340;-76
2022/04/20 16:35:09;;;;;;;;;;;;;;;;;;4918881;29;19915;-76
2022/04/20 16:37:34;;;;;;;;;;;;;;;;;;4918951;29;19919;-77
2022/04/20 16:39:59;;;;;;;;;;;;;;;;;;4917141;29;20070;-76
2022/04/20 16:42:27;;;;;;;;;;;;;;;;;;4901541;29;20013;-76
2022/04/20 16:44:57;;;;;;;;;;;;;;;;;;4917892;29;19915;-77
2022/04/20 16:47:24;;;;;;;;;;;;;;;;;;4918107;29;19910;-77
2022/04/20 16:49:51;;;;;;;;;;;;;;;;;;4920562;29;19982;-78
2022/04/20 16:52:16;;;;;;;;;;;;;;;;;;4937708;29;19926;-76
2022/04/20 16:54:42;;;;;;;;;;;;;;;;;;4936483;29;19914;-76
2022/04/20 16:57:08;;;;;;;;;;;;;;;;;;4937420;29;19921;-78
2022/04/20 16:59:36;;;;;;;;;;;;;;;;;;4937924;29;19911;-77
2022/04/20 17:02:01;;;;;;;;;;;;;;;;;;4934292;29;19960;-77
2022/04/20 17:04:26;;;;;;;;;;;;;;;;;;4935677;29;19946;-77
2022/04/20 17:06:52;;;;;;;;;;;;;;;;;;4937487;29;19929;-76
2022/04/20 17:09:17;;;;;;;;;;;;;;;;;;4928054;29;19911;-77
2022/04/20 17:12:04;;;;;;;;;;;;;;;;;;4924787;29;19915;-77
2022/04/20 17:14:39;;;;;;;;;;;;;;;;;;4931558;29;20376;-76
2022/04/20 17:17:07;;;;;;;;;;;;;;;;;;4928850;29;20010;-76
2022/04/20 17:19:35;;;;;;;;;;;;;;;;;;4925524;29;19921;-76
2022/04/20 17:27:29;;;;;;;;;;;;;;;;;;4923026;29;19978;-77
2022/04/20 17:29:57;;;;;;;;;;;;;;;;;;4928877;29;19925;-77
2022/04/20 17:32:22;;;;;;;;;;;;;;;;;;4929935;29;19917;-77
2022/04/20 17:36:37;;;;;;;;;;;;;;;;;;4922044;29;20224;-77
2022/04/20 17:37:35;;;;;;;;;;;;;;;;;;4936373;29;19919;-76
2022/04/20 17:40:01;;;;;;;;;;;;;;;;;;4936950;29;19921;-76
2022/04/20 17:42:26;;;;;;;;;;;;;;;;;;4937060;29;19922;-76
2022/04/20 17:44:51;;;;;;;;;;;;;;;;;;4921517;29;19915;-76
2022/04/20 17:47:19;;;;;;;;;;;;;;;;;;4932546;29;19911;-78
2022/04/20 17:49:45;;;;;;;;;;;;;;;;;;4918072;29;19963;-76
2022/04/20 17:52:10;;;;;;;;;;;;;;;;;;4928152;29;19911;-77
2022/04/20 17:54:35;;;;;;;;;;;;;;;;;;4934907;29;20005;-77
2022/04/20 17:57:18;;;;;;;;;;;;;;;;;;4928407;29;19922;-76